Time;durP1;ratioP1;P1;durP2;ratioP2;P2;SDS_P1;SDS_P2;PMS_P1;PMS_P2;Temp;Humidity;BMP_temperature;BMP_pressure;BME280_temperature;BME280_humidity;BME280_pressure;Samples;Min_cycle;Max_cycle;Signal;HPM_P1;HPM_P2
2022/04/16 00:01:49;;;;;;;15.37;12.13;;;;;;;;;;5064978;28;20282;-53
2022/04/16 00:04:15;;;;;;;14.60;11.50;;;;;;;;;;5071600;28;20632;-52
2022/04/16 00:06:41;;;;;;;15.47;11.30;;;;;;;;;;5073544;28;20206;-55
2022/04/16 00:09:07;;;;;;;15.17;11.83;;;;;;;;;;5072981;28;20599;-53
2022/04/16 00:11:33;;;;;;;17.07;12.07;;;;;;;;;;5072991;28;20203;-53
2022/04/16 00:13:59;;;;;;;15.77;11.30;;;;;;;;;;5073480;28;20551;-53
2022/04/16 00:16:25;;;;;;;14.77;11.77;;;;;;;;;;5073456;28;20204;-53
2022/04/16 00:18:56;;;;;;;15.47;12.30;;;;;;;;;;5073293;28;20245;-54
2022/04/16 00:21:22;;;;;;;21.53;16.53;;;;;;;;;;5073448;28;20207;-52
2022/04/16 00:23:48;;;;;;;15.97;13.13;;;;;;;;;;5072878;28;20241;-55
2022/04/16 00:26:14;;;;;;;19.77;13.07;;;;;;;;;;5073421;28;20210;-52
2022/04/16 00:28:41;;;;;;;14.33;11.83;;;;;;;;;;5072956;28;20601;-51
2022/04/16 00:31:07;;;;;;;17.30;12.07;;;;;;;;;;5073074;28;20206;-52
2022/04/16 00:33:33;;;;;;;17.13;12.50;;;;;;;;;;5072832;28;20566;-54
2022/04/16 00:36:01;;;;;;;14.80;11.30;;;;;;;;;;5073168;28;20294;-53
2022/04/16 00:38:27;;;;;;;13.67;11.13;;;;;;;;;;5073024;28;20195;-52
2022/04/16 00:40:53;;;;;;;15.97;10.77;;;;;;;;;;5072909;28;20739;-52
2022/04/16 00:43:22;;;;;;;15.87;11.17;;;;;;;;;;5072928;28;20203;-54
2022/04/16 00:45:48;;;;;;;16.07;11.60;;;;;;;;;;5072793;28;20256;-52
2022/04/16 00:48:14;;;;;;;14.63;11.40;;;;;;;;;;5072330;28;20219;-52
2022/04/16 00:50:40;;;;;;;45.10;35.67;;;;;;;;;;5072452;28;20559;-52
2022/04/16 00:53:08;;;;;;;13.17;9.67;;;;;;;;;;5068988;28;20199;-52
2022/04/16 00:55:36;;;;;;;15.07;9.67;;;;;;;;;;5072051;28;20203;-55
2022/04/16 00:58:03;;;;;;;14.70;9.53;;;;;;;;;;5072168;28;20657;-52
2022/04/16 01:00:29;;;;;;;14.47;10.43;;;;;;;;;;5072493;28;20203;-52
2022/04/16 01:02:56;;;;;;;13.77;10.43;;;;;;;;;;5072528;28;20200;-53
2022/04/16 01:05:22;;;;;;;13.53;9.87;;;;;;;;;;5072537;28;20200;-53
2022/04/16 01:07:52;;;;;;;13.27;9.43;;;;;;;;;;5072379;28;20272;-52
2022/04/16 01:10:19;;;;;;;12.70;8.63;;;;;;;;;;5072565;28;20203;-53
2022/04/16 01:12:45;;;;;;;13.60;9.60;;;;;;;;;;5072291;28;20241;-52
2022/04/16 01:15:11;;;;;;;13.10;9.37;;;;;;;;;;5072351;28;20661;-53
2022/04/16 01:17:37;;;;;;;11.93;9.07;;;;;;;;;;5072117;28;20214;-52
2022/04/16 01:20:04;;;;;;;13.97;9.00;;;;;;;;;;5072369;28;20206;-52
2022/04/16 01:22:31;;;;;;;13.73;9.60;;;;;;;;;;5072363;28;20282;-53
2022/04/16 01:24:59;;;;;;;14.97;10.13;;;;;;;;;;5072027;28;20247;-53
2022/04/16 01:27:25;;;;;;;10.97;8.43;;;;;;;;;;5072173;28;20682;-54
2022/04/16 01:29:53;;;;;;;11.30;8.50;;;;;;;;;;5072402;28;20283;-53
2022/04/16 01:32:19;;;;;;;11.00;8.70;;;;;;;;;;5072075;28;20229;-54
2022/04/16 01:34:45;;;;;;;10.87;8.00;;;;;;;;;;5072295;28;20252;-54
2022/04/16 01:37:12;;;;;;;13.73;8.60;;;;;;;;;;5071939;28;20253;-53
2022/04/16 01:39:40;;;;;;;11.07;8.00;;;;;;;;;;5071917;28;20566;-53
2022/04/16 01:42:06;;;;;;;11.20;8.80;;;;;;;;;;5072059;28;20674;-53
2022/04/16 01:44:32;;;;;;;12.77;8.57;;;;;;;;;;5072050;28;20226;-52
2022/04/16 01:46:58;;;;;;;10.03;8.33;;;;;;;;;;5072210;28;20195;-52
2022/04/16 01:49:26;;;;;;;10.37;7.70;;;;;;;;;;5072072;28;20253;-53
2022/04/16 01:51:53;;;;;;;12.03;8.27;;;;;;;;;;5071803;28;20766;-52
2022/04/16 01:54:19;;;;;;;11.07;8.00;;;;;;;;;;5071835;28;20244;-54
2022/04/16 01:56:47;;;;;;;10.73;7.50;;;;;;;;;;5071873;28;20612;-54
2022/04/16 01:59:13;;;;;;;10.10;7.20;;;;;;;;;;5075449;28;20204;-54
2022/04/16 02:01:39;;;;;;;8.43;6.77;;;;;;;;;;5076021;28;20674;-54
2022/04/16 02:04:05;;;;;;;8.47;6.50;;;;;;;;;;5076092;28;20191;-53
2022/04/16 02:06:31;;;;;;;9.60;5.70;;;;;;;;;;5076037;28;20192;-54
2022/04/16 02:08:57;;;;;;;8.00;5.83;;;;;;;;;;5075722;28;20307;-53
2022/04/16 02:11:23;;;;;;;8.57;5.07;;;;;;;;;;5075876;28;20241;-53
2022/04/16 02:13:50;;;;;;;8.00;5.30;;;;;;;;;;5075859;28;20210;-53
2022/04/16 02:16:16;;;;;;;5.93;4.63;;;;;;;;;;5075872;28;20210;-53
2022/04/16 02:18:42;;;;;;;6.43;4.47;;;;;;;;;;5075603;28;20207;-52
2022/04/16 02:21:10;;;;;;;5.97;4.27;;;;;;;;;;5075429;28;20202;-53
2022/04/16 02:23:36;;;;;;;4.60;3.40;;;;;;;;;;5075465;28;20195;-53
2022/04/16 02:26:06;;;;;;;4.77;3.60;;;;;;;;;;5075505;28;20246;-54
2022/04/16 02:28:35;;;;;;;4.40;3.23;;;;;;;;;;5075216;28;20238;-54
2022/04/16 02:31:03;;;;;;;4.00;3.10;;;;;;;;;;5075245;28;20188;-53
2022/04/16 02:33:30;;;;;;;4.87;3.23;;;;;;;;;;5075384;28;20638;-53
2022/04/16 02:35:57;;;;;;;4.87;3.57;;;;;;;;;;5075345;28;20653;-53
2022/04/16 02:38:23;;;;;;;4.23;3.07;;;;;;;;;;5075394;28;20282;-52
2022/04/16 02:40:49;;;;;;;3.17;2.87;;;;;;;;;;5075016;28;20562;-53
2022/04/16 02:43:15;;;;;;;2.70;2.50;;;;;;;;;;5075163;28;20664;-52
2022/04/16 02:48:27;;;;;;;4.10;3.03;;;;;;;;;;5074976;28;20275;-53
2022/04/16 02:50:53;;;;;;;4.57;2.80;;;;;;;;;;5075002;28;20286;-52
2022/04/16 02:53:20;;;;;;;3.13;2.30;;;;;;;;;;5074951;28;20610;-53
2022/04/16 02:55:46;;;;;;;3.47;2.73;;;;;;;;;;5074494;28;20199;-53
2022/04/16 02:58:12;;;;;;;3.47;2.87;;;;;;;;;;5074696;28;20212;-52
2022/04/16 03:00:39;;;;;;;4.37;2.50;;;;;;;;;;5074633;28;20199;-52
2022/04/16 03:03:05;;;;;;;3.03;2.53;;;;;;;;;;5074673;28;20195;-52
2022/04/16 03:05:32;;;;;;;3.77;2.40;;;;;;;;;;5074511;28;20612;-52
2022/04/16 03:07:58;;;;;;;5.33;2.20;;;;;;;;;;5074573;28;20223;-52
2022/04/16 03:10:24;;;;;;;2.70;2.37;;;;;;;;;;5073779;28;20208;-53
2022/04/16 03:12:55;;;;;;;2.43;2.20;;;;;;;;;;5074498;28;20187;-52
2022/04/16 03:18:07;;;;;;;3.40;2.40;;;;;;;;;;5074486;28;20566;-52
2022/04/16 03:20:37;;;;;;;3.00;2.27;;;;;;;;;;5074356;28;20278;-52
2022/04/16 03:23:03;;;;;;;2.57;2.03;;;;;;;;;;5074357;28;20215;-53
2022/04/16 03:25:29;;;;;;;2.40;2.20;;;;;;;;;;5074061;28;20231;-53
2022/04/16 03:27:55;;;;;;;3.10;2.17;;;;;;;;;;5074181;28;20551;-53
2022/04/16 03:30:23;;;;;;;2.53;2.10;;;;;;;;;;5074489;28;20920;-54
2022/04/16 03:32:49;;;;;;;2.13;1.77;;;;;;;;;;5074310;28;20208;-53
2022/04/16 03:35:18;;;;;;;2.10;1.80;;;;;;;;;;5074466;28;20449;-53
2022/04/16 03:37:45;;;;;;;3.73;2.23;;;;;;;;;;5074137;28;20541;-53
2022/04/16 03:40:15;;;;;;;3.17;1.93;;;;;;;;;;5074153;28;20203;-53
2022/04/16 03:42:44;;;;;;;2.73;2.10;;;;;;;;;;5074002;28;20465;-53
2022/04/16 03:45:15;;;;;;;2.80;1.93;;;;;;;;;;5074318;28;20434;-53
2022/04/16 03:47:41;;;;;;;2.47;2.10;;;;;;;;;;5073977;28;20488;-53
2022/04/16 03:50:08;;;;;;;2.30;1.80;;;;;;;;;;5070275;28;20449;-53
2022/04/16 03:52:38;;;;;;;3.27;2.00;;;;;;;;;;5073276;28;20603;-53
2022/04/16 04:00:35;;;;;;;6.83;2.00;;;;;;;;;;5073784;28;20413;-53
2022/04/16 04:03:02;;;;;;;2.73;2.10;;;;;;;;;;5073919;28;20429;-53
2022/04/16 04:05:28;;;;;;;3.77;2.00;;;;;;;;;;5073770;28;20207;-53
2022/04/16 04:07:54;;;;;;;3.50;1.93;;;;;;;;;;5073260;28;20477;-53
2022/04/16 04:10:21;;;;;;;3.17;2.13;;;;;;;;;;5073678;28;20445;-53
2022/04/16 04:12:47;;;;;;;3.50;2.13;;;;;;;;;;5073513;28;20654;-53
2022/04/16 04:15:13;;;;;;;2.00;1.90;;;;;;;;;;5073405;28;20432;-53
2022/04/16 04:17:39;;;;;;;2.30;2.10;;;;;;;;;;5073436;28;20265;-53
2022/04/16 04:20:06;;;;;;;2.67;2.00;;;;;;;;;;5073572;28;20199;-53
2022/04/16 04:22:32;;;;;;;2.00;1.80;;;;;;;;;;5073432;28;20246;-53
2022/04/16 04:24:58;;;;;;;2.37;2.00;;;;;;;;;;5073135;28;20477;-52
2022/04/16 04:27:25;;;;;;;3.90;1.90;;;;;;;;;;5073135;28;20853;-53
2022/04/16 04:29:51;;;;;;;2.90;1.90;;;;;;;;;;5073167;28;20210;-53
2022/04/16 04:32:17;;;;;;;2.77;1.90;;;;;;;;;;5073124;28;20433;-52
2022/04/16 04:34:43;;;;;;;2.53;1.90;;;;;;;;;;5072938;28;20715;-53
2022/04/16 04:37:09;;;;;;;2.30;2.03;;;;;;;;;;5072940;28;20207;-53
2022/04/16 04:39:35;;;;;;;3.33;2.17;;;;;;;;;;5072749;28;20202;-53
2022/04/16 04:42:01;;;;;;;4.43;2.20;;;;;;;;;;5069406;28;20195;-53
2022/04/16 04:44:28;;;;;;;5.70;2.20;;;;;;;;;;5072776;28;20235;-53
2022/04/16 04:46:55;;;;;;;5.33;1.90;;;;;;;;;;5072719;28;20276;-53
2022/04/16 04:49:21;;;;;;;3.57;2.37;;;;;;;;;;5072554;28;21009;-53
2022/04/16 04:51:47;;;;;;;2.77;2.03;;;;;;;;;;5072538;28;20851;-53
2022/04/16 04:54:13;;;;;;;1.93;1.70;;;;;;;;;;5072676;28;20928;-53
2022/04/16 04:56:39;;;;;;;3.03;2.07;;;;;;;;;;5072384;28;20515;-53
2022/04/16 04:59:05;;;;;;;3.87;2.13;;;;;;;;;;5072542;28;20434;-53
2022/04/16 05:01:32;;;;;;;2.93;1.87;;;;;;;;;;5072600;28;20487;-53
2022/04/16 05:03:58;;;;;;;3.93;2.10;;;;;;;;;;5072475;28;20445;-53
2022/04/16 05:06:24;;;;;;;3.30;2.20;;;;;;;;;;5072629;28;20438;-52
2022/04/16 05:08:51;;;;;;;3.83;1.90;;;;;;;;;;5072454;28;20505;-53
2022/04/16 05:11:17;;;;;;;4.83;2.20;;;;;;;;;;5072226;28;20969;-52
2022/04/16 05:13:43;;;;;;;4.50;2.17;;;;;;;;;;5072297;28;20456;-52
2022/04/16 05:16:12;;;;;;;2.43;2.17;;;;;;;;;;5072446;28;20536;-52
2022/04/16 05:18:39;;;;;;;4.03;2.13;;;;;;;;;;5071983;28;20430;-52
2022/04/16 05:21:05;;;;;;;2.60;2.00;;;;;;;;;;5072361;28;20450;-53
2022/04/16 05:23:31;;;;;;;2.60;2.00;;;;;;;;;;5072115;28;20456;-53
2022/04/16 05:25:57;;;;;;;4.40;2.50;;;;;;;;;;5071890;28;20782;-53
2022/04/16 05:28:23;;;;;;;5.37;2.33;;;;;;;;;;5071948;28;20474;-52
2022/04/16 05:30:54;;;;;;;6.80;2.10;;;;;;;;;;5071846;28;20248;-53
2022/04/16 05:36:09;;;;;;;3.17;2.00;;;;;;;;;;5071600;28;20477;-54
2022/04/16 05:38:35;;;;;;;3.80;2.07;;;;;;;;;;5072044;28;20430;-54
2022/04/16 05:41:01;;;;;;;4.03;2.17;;;;;;;;;;5071810;28;20442;-54
2022/04/16 05:43:27;;;;;;;2.77;1.80;;;;;;;;;;5072054;28;20993;-53
2022/04/16 05:45:54;;;;;;;4.73;2.40;;;;;;;;;;5071985;28;20507;-52
2022/04/16 05:48:20;;;;;;;3.50;2.00;;;;;;;;;;5071984;28;20856;-52
2022/04/16 05:50:46;;;;;;;4.27;2.00;;;;;;;;;;5072134;28;20528;-52
2022/04/16 05:53:15;;;;;;;5.37;2.30;;;;;;;;;;5072183;28;20449;-53
2022/04/16 05:55:41;;;;;;;2.80;1.90;;;;;;;;;;5071752;28;20477;-54
2022/04/16 05:58:07;;;;;;;6.93;2.30;;;;;;;;;;5071817;28;20434;-52
2022/04/16 06:00:34;;;;;;;4.20;2.00;;;;;;;;;;5071801;28;20446;-54
2022/04/16 06:03:00;;;;;;;3.57;2.07;;;;;;;;;;5071920;28;20491;-56
2022/04/16 06:05:28;;;;;;;2.13;1.90;;;;;;;;;;5071713;28;20451;-53
2022/04/16 06:07:54;;;;;;;2.87;1.70;;;;;;;;;;5071657;28;20602;-52
2022/04/16 06:10:21;;;;;;;2.87;1.90;;;;;;;;;;5071710;28;20792;-53
2022/04/16 06:12:47;;;;;;;3.23;1.97;;;;;;;;;;5070052;28;20269;-54
2022/04/16 06:15:13;;;;;;;5.67;1.70;;;;;;;;;;5071712;28;20437;-53
2022/04/16 06:17:39;;;;;;;3.87;1.73;;;;;;;;;;5071661;28;20201;-54
2022/04/16 06:20:07;;;;;;;2.73;1.90;;;;;;;;;;5071751;28;20257;-54
2022/04/16 06:22:33;;;;;;;3.10;1.90;;;;;;;;;;5071646;28;20437;-52
2022/04/16 06:24:59;;;;;;;2.60;1.70;;;;;;;;;;5071328;28;20483;-52
2022/04/16 06:27:26;;;;;;;2.20;1.70;;;;;;;;;;5071541;28;20454;-53
2022/04/16 06:29:52;;;;;;;3.13;1.60;;;;;;;;;;5071305;28;20449;-52
2022/04/16 06:32:18;;;;;;;4.00;1.80;;;;;;;;;;5071520;28;20513;-52
2022/04/16 06:34:45;;;;;;;3.20;2.00;;;;;;;;;;5071612;28;20230;-52
2022/04/16 06:37:11;;;;;;;4.97;1.83;;;;;;;;;;5071406;28;20437;-53
2022/04/16 06:39:37;;;;;;;3.00;1.43;;;;;;;;;;5071378;28;20438;-52
2022/04/16 06:42:03;;;;;;;2.67;1.43;;;;;;;;;;5071253;28;20241;-53
2022/04/16 06:44:31;;;;;;;5.00;1.70;;;;;;;;;;5071501;28;20641;-54
2022/04/16 06:46:57;;;;;;;3.67;1.77;;;;;;;;;;5075074;28;20208;-54
2022/04/16 06:49:25;;;;;;;3.73;1.70;;;;;;;;;;5074842;28;20480;-53
2022/04/16 06:51:51;;;;;;;3.07;1.47;;;;;;;;;;5074890;28;21003;-53
2022/04/16 06:54:17;;;;;;;2.00;1.30;;;;;;;;;;5074983;28;20452;-53
2022/04/16 06:56:43;;;;;;;4.10;1.50;;;;;;;;;;5074734;28;20441;-53
2022/04/16 06:59:09;;;;;;;2.80;1.57;;;;;;;;;;5074829;28;20210;-53
2022/04/16 07:01:37;;;;;;;2.53;1.90;;;;;;;;;;5074680;28;20207;-53
2022/04/16 07:04:03;;;;;;;3.17;1.50;;;;;;;;;;5074985;28;20227;-54
2022/04/16 07:06:29;;;;;;;2.30;1.77;;;;;;;;;;5074864;28;20232;-53
2022/04/16 07:08:55;;;;;;;2.00;1.47;;;;;;;;;;5074603;28;20697;-53
2022/04/16 07:11:21;;;;;;;4.00;1.60;;;;;;;;;;5074454;28;20200;-53
2022/04/16 07:13:47;;;;;;;2.20;1.60;;;;;;;;;;5074530;28;20223;-53
2022/04/16 07:16:13;;;;;;;1.50;1.40;;;;;;;;;;5074460;28;20203;-53
2022/04/16 07:18:40;;;;;;;3.63;1.50;;;;;;;;;;5074208;28;20294;-53
2022/04/16 07:21:06;;;;;;;2.17;1.60;;;;;;;;;;5074382;28;20211;-54
2022/04/16 07:23:32;;;;;;;1.63;1.50;;;;;;;;;;5074409;28;20196;-54
2022/04/16 07:25:58;;;;;;;1.83;1.30;;;;;;;;;;5074020;28;20791;-54
2022/04/16 07:28:24;;;;;;;2.50;1.50;;;;;;;;;;5074401;28;20223;-53
2022/04/16 07:30:50;;;;;;;3.70;1.40;;;;;;;;;;5074317;28;20249;-53
2022/04/16 07:33:17;;;;;;;2.03;1.33;;;;;;;;;;5074236;28;20822;-53
2022/04/16 07:35:44;;;;;;;4.13;1.40;;;;;;;;;;5073864;28;20200;-53
2022/04/16 07:38:10;;;;;;;3.30;1.70;;;;;;;;;;5074053;28;20226;-54
2022/04/16 07:40:37;;;;;;;1.90;1.27;;;;;;;;;;5074114;28;20206;-53
2022/04/16 07:43:03;;;;;;;2.43;1.37;;;;;;;;;;5074038;28;20253;-54
2022/04/16 07:45:29;;;;;;;3.00;1.40;;;;;;;;;;5074048;28;20210;-53
2022/04/16 07:47:55;;;;;;;2.17;1.17;;;;;;;;;;5073760;28;20234;-53
2022/04/16 07:50:22;;;;;;;1.57;1.40;;;;;;;;;;5073922;28;20282;-53
2022/04/16 07:52:49;;;;;;;2.73;1.40;;;;;;;;;;5073822;28;20203;-54
2022/04/16 07:55:15;;;;;;;1.57;1.37;;;;;;;;;;5073556;28;20680;-53
2022/04/16 07:57:41;;;;;;;1.40;1.30;;;;;;;;;;5073669;28;20195;-54
2022/04/16 08:00:08;;;;;;;1.73;1.27;;;;;;;;;;5073907;28;20191;-53
2022/04/16 08:02:34;;;;;;;3.13;1.53;;;;;;;;;;5073347;28;20203;-54
2022/04/16 08:05:00;;;;;;;1.40;1.30;;;;;;;;;;5073615;28;20202;-53
2022/04/16 08:07:26;;;;;;;1.10;1.00;;;;;;;;;;5073756;28;20234;-52
2022/04/16 08:09:54;;;;;;;1.60;1.23;;;;;;;;;;5073038;28;20199;-52
2022/04/16 08:12:20;;;;;;;2.83;1.20;;;;;;;;;;5073094;28;20207;-53
2022/04/16 08:14:46;;;;;;;2.47;1.20;;;;;;;;;;5071974;28;20200;-53
2022/04/16 08:17:12;;;;;;;2.27;1.50;;;;;;;;;;5073207;28;20199;-49
2022/04/16 08:19:38;;;;;;;2.13;1.10;;;;;;;;;;5072583;28;20204;-47
2022/04/16 08:22:07;;;;;;;2.17;1.27;;;;;;;;;;5072653;28;20202;-52
2022/04/16 08:27:04;;;;;;;2.87;1.23;;;;;;;;;;5072766;28;20211;-53
2022/04/16 08:29:30;;;;;;;1.30;1.20;;;;;;;;;;5072699;28;20235;-53
2022/04/16 08:31:56;;;;;;;1.47;1.10;;;;;;;;;;5072668;28;20658;-54
2022/04/16 08:34:22;;;;;;;1.13;1.03;;;;;;;;;;5072796;28;20235;-54
2022/04/16 08:36:48;;;;;;;1.50;1.40;;;;;;;;;;5072471;28;20294;-53
2022/04/16 08:39:15;;;;;;;1.40;1.30;;;;;;;;;;5072450;28;20195;-53
2022/04/16 08:41:41;;;;;;;3.27;1.43;;;;;;;;;;5072381;28;20767;-47
2022/04/16 08:44:09;;;;;;;3.00;1.27;;;;;;;;;;5072635;28;20191;-54
2022/04/16 08:46:36;;;;;;;1.63;1.20;;;;;;;;;;5071902;28;20203;-53
2022/04/16 08:49:02;;;;;;;2.10;1.27;;;;;;;;;;5072176;28;20701;-54
2022/04/16 08:51:28;;;;;;;1.23;1.10;;;;;;;;;;5072437;28;20196;-53
2022/04/16 08:53:54;;;;;;;1.33;1.20;;;;;;;;;;5072085;28;20202;-53
2022/04/16 08:56:20;;;;;;;1.27;1.17;;;;;;;;;;5072294;28;20210;-54
2022/04/16 08:58:46;;;;;;;3.57;1.20;;;;;;;;;;5072307;28;20195;-53
2022/04/16 09:01:14;;;;;;;1.30;1.03;;;;;;;;;;5072434;28;20225;-54
2022/04/16 09:03:40;;;;;;;2.53;0.97;;;;;;;;;;5071682;28;20658;-53
2022/04/16 09:06:07;;;;;;;1.33;1.00;;;;;;;;;;5072382;28;20286;-54
2022/04/16 09:08:34;;;;;;;1.70;1.30;;;;;;;;;;5071611;28;20224;-54
2022/04/16 09:11:07;;;;;;;1.20;1.10;;;;;;;;;;5072158;28;20249;-54
2022/04/16 09:13:33;;;;;;;2.07;1.20;;;;;;;;;;5072131;28;20191;-54
2022/04/16 09:16:05;;;;;;;1.67;1.10;;;;;;;;;;5071775;28;20191;-54
2022/04/16 09:18:33;;;;;;;1.63;1.30;;;;;;;;;;5071647;28;20238;-55
2022/04/16 09:20:59;;;;;;;1.97;1.00;;;;;;;;;;5071874;28;20207;-53
2022/04/16 09:23:25;;;;;;;1.60;1.20;;;;;;;;;;5071920;28;20222;-54
2022/04/16 09:25:51;;;;;;;1.00;1.00;;;;;;;;;;5071737;28;20272;-53
2022/04/16 09:28:30;;;;;;;1.43;1.00;;;;;;;;;;5071688;28;20231;-52
2022/04/16 09:30:56;;;;;;;1.47;1.10;;;;;;;;;;5067513;28;20203;-53
2022/04/16 09:33:23;;;;;;;2.77;1.43;;;;;;;;;;5071408;28;20207;-54
2022/04/16 09:35:55;;;;;;;1.90;1.10;;;;;;;;;;5071556;28;20199;-54
2022/04/16 09:38:21;;;;;;;1.17;0.90;;;;;;;;;;5071574;28;20282;-54
2022/04/16 09:40:47;;;;;;;0.97;0.70;;;;;;;;;;5071338;28;20295;-54
2022/04/16 09:43:13;;;;;;;1.10;0.90;;;;;;;;;;5071596;28;20199;-54
2022/04/16 09:45:40;;;;;;;1.53;1.00;;;;;;;;;;5071412;28;20207;-54
2022/04/16 09:48:08;;;;;;;1.77;1.10;;;;;;;;;;5069453;28;20224;-55
2022/04/16 09:50:34;;;;;;;2.80;1.10;;;;;;;;;;5071715;28;20260;-53
2022/04/16 09:53:05;;;;;;;1.57;1.00;;;;;;;;;;5071751;28;20670;-54
2022/04/16 09:55:32;;;;;;;1.80;1.00;;;;;;;;;;5071900;28;20218;-54
2022/04/16 09:57:59;;;;;;;2.10;1.20;;;;;;;;;;5071701;28;20257;-55
2022/04/16 10:00:26;;;;;;;1.67;1.03;;;;;;;;;;5068082;28;20249;-54
2022/04/16 10:02:55;;;;;;;1.33;1.00;;;;;;;;;;5071031;28;20198;-52
2022/04/16 10:05:22;;;;;;;1.00;0.90;;;;;;;;;;5071075;28;20223;-53
2022/04/16 10:07:48;;;;;;;1.70;1.47;;;;;;;;;;5071340;28;20195;-53
2022/04/16 10:10:18;;;;;;;1.43;1.03;;;;;;;;;;5071680;28;20199;-54
2022/04/16 10:13:00;;;;;;;1.60;0.90;;;;;;;;;;5071591;28;20215;-53
2022/04/16 10:15:28;;;;;;;1.03;0.93;;;;;;;;;;5071471;28;20561;-53
2022/04/16 10:17:54;;;;;;;1.90;1.10;;;;;;;;;;5071375;28;20284;-52
2022/04/16 10:20:21;;;;;;;1.03;0.93;;;;;;;;;;5074525;28;20235;-54
2022/04/16 10:22:54;;;;;;;3.13;1.00;;;;;;;;;;5074982;28;20199;-54
2022/04/16 10:25:31;;;;;;;1.23;0.80;;;;;;;;;;5074770;28;20268;-56
2022/04/16 10:28:00;;;;;;;1.87;1.00;;;;;;;;;;5074831;28;20290;-54
2022/04/16 10:30:35;;;;;;;1.30;0.80;;;;;;;;;;5075196;28;20201;-53
2022/04/16 10:33:03;;;;;;;1.37;0.97;;;;;;;;;;5074801;28;20275;-54
2022/04/16 10:35:30;;;;;;;1.30;1.20;;;;;;;;;;5074284;28;20230;-54
2022/04/16 10:37:56;;;;;;;1.90;1.13;;;;;;;;;;5074147;28;20555;-54
2022/04/16 10:40:23;;;;;;;1.83;1.17;;;;;;;;;;5074347;28;20197;-54
2022/04/16 10:42:51;;;;;;;1.37;1.00;;;;;;;;;;5074734;28;20197;-53
2022/04/16 10:45:17;;;;;;;2.33;1.00;;;;;;;;;;5075149;28;20291;-53
2022/04/16 10:47:46;;;;;;;1.60;0.97;;;;;;;;;;5074879;28;20204;-54
2022/04/16 10:50:17;;;;;;;0.90;0.90;;;;;;;;;;5074957;28;20250;-55
2022/04/16 10:52:52;;;;;;;0.80;0.80;;;;;;;;;;5074527;28;20684;-54
2022/04/16 10:55:20;;;;;;;1.70;1.10;;;;;;;;;;5074917;28;20201;-54
2022/04/16 10:57:57;;;;;;;2.47;1.20;;;;;;;;;;5074455;28;20200;-54
2022/04/16 11:00:34;;;;;;;1.43;1.10;;;;;;;;;;5074983;28;20209;-55
2022/04/16 11:03:05;;;;;;;1.40;1.30;;;;;;;;;;5074937;28;20300;-54
2022/04/16 11:05:35;;;;;;;0.80;0.80;;;;;;;;;;5074986;28;20282;-54
2022/04/16 11:08:01;;;;;;;1.03;1.03;;;;;;;;;;5074374;28;20213;-54
2022/04/16 11:10:28;;;;;;;1.27;1.10;;;;;;;;;;5074717;28;20272;-53
2022/04/16 11:12:55;;;;;;;3.00;1.17;;;;;;;;;;5074484;28;20283;-54
2022/04/16 11:15:24;;;;;;;1.43;1.20;;;;;;;;;;5074789;28;20203;-54
2022/04/16 11:17:53;;;;;;;1.30;1.20;;;;;;;;;;5074235;28;20213;-54
2022/04/16 11:20:21;;;;;;;1.27;1.13;;;;;;;;;;5074213;28;20256;-54
2022/04/16 11:22:50;;;;;;;0.93;0.80;;;;;;;;;;5074244;28;20206;-54
2022/04/16 11:25:16;;;;;;;2.30;1.10;;;;;;;;;;5074123;28;20321;-54
2022/04/16 11:35:59;;;;;;;1.30;0.90;;;;;;;;;;5074284;28;20349;-54
2022/04/16 11:38:25;;;;;;;1.20;1.10;;;;;;;;;;5074196;28;20658;-54
2022/04/16 11:40:52;;;;;;;4.90;1.20;;;;;;;;;;5073962;28;20199;-53
2022/04/16 11:43:19;;;;;;;1.77;1.13;;;;;;;;;;5073721;28;20204;-54
2022/04/16 11:45:46;;;;;;;1.53;1.00;;;;;;;;;;5073902;28;20196;-53
2022/04/16 11:48:14;;;;;;;1.10;1.00;;;;;;;;;;5073824;28;20685;-54
2022/04/16 11:50:40;;;;;;;3.07;0.73;;;;;;;;;;5073935;28;20290;-54
2022/04/16 11:53:12;;;;;;;1.00;0.87;;;;;;;;;;5073823;28;20684;-54
2022/04/16 11:55:45;;;;;;;0.97;0.87;;;;;;;;;;5073849;28;20282;-55
2022/04/16 11:58:11;;;;;;;2.10;1.90;;;;;;;;;;5073706;28;20620;-55
2022/04/16 12:00:47;;;;;;;2.10;0.90;;;;;;;;;;5073712;28;20435;-53
2022/04/16 12:03:15;;;;;;;1.07;1.00;;;;;;;;;;5073498;28;20282;-54
2022/04/16 12:05:47;;;;;;;1.00;0.90;;;;;;;;;;5073307;28;20618;-54
2022/04/16 12:08:14;;;;;;;1.40;1.10;;;;;;;;;;5073223;28;20223;-53
2022/04/16 12:10:44;;;;;;;1.70;1.00;;;;;;;;;;5073077;28;20199;-55
2022/04/16 12:13:10;;;;;;;1.73;0.90;;;;;;;;;;5073025;28;20662;-59
2022/04/16 12:15:40;;;;;;;0.80;0.80;;;;;;;;;;5073186;28;20199;-54
2022/04/16 12:18:09;;;;;;;1.33;1.10;;;;;;;;;;5072694;28;20199;-53
2022/04/16 12:20:40;;;;;;;2.30;1.10;;;;;;;;;;5073032;28;20233;-53
2022/04/16 12:23:10;;;;;;;2.13;1.00;;;;;;;;;;5073110;28;20199;-55
2022/04/16 12:25:37;;;;;;;0.90;0.90;;;;;;;;;;5072380;28;20301;-54
2022/04/16 12:28:03;;;;;;;1.23;0.80;;;;;;;;;;5072641;28;20204;-54
2022/04/16 12:30:32;;;;;;;1.33;0.90;;;;;;;;;;5072720;28;20209;-53
2022/04/16 12:32:59;;;;;;;0.90;0.90;;;;;;;;;;5072502;28;20195;-54
2022/04/16 12:35:25;;;;;;;2.30;1.77;;;;;;;;;;5072793;28;20542;-55
2022/04/16 12:37:53;;;;;;;3.97;2.00;;;;;;;;;;5072607;28;20230;-54
2022/04/16 12:40:19;;;;;;;3.30;3.00;;;;;;;;;;5072294;28;20324;-54
2022/04/16 12:42:46;;;;;;;2.53;1.30;;;;;;;;;;5071674;28;20203;-54
2022/04/16 12:45:12;;;;;;;3.53;2.80;;;;;;;;;;5072110;28;20684;-53
2022/04/16 12:47:38;;;;;;;2.80;2.60;;;;;;;;;;5072629;28;20195;-55
2022/04/16 12:50:05;;;;;;;1.77;1.47;;;;;;;;;;5072412;28;20701;-53
2022/04/16 12:52:31;;;;;;;1.67;1.53;;;;;;;;;;5072659;28;20207;-54
2022/04/16 12:54:59;;;;;;;3.23;2.00;;;;;;;;;;5072305;28;20749;-54
2022/04/16 12:57:25;;;;;;;1.60;1.43;;;;;;;;;;5072396;28;20613;-56
2022/04/16 12:59:51;;;;;;;2.33;1.30;;;;;;;;;;5072346;28;20677;-53
2022/04/16 13:02:18;;;;;;;1.23;1.13;;;;;;;;;;5072220;28;20202;-54
2022/04/16 13:04:44;;;;;;;1.30;1.10;;;;;;;;;;5072199;28;20274;-54
2022/04/16 13:07:10;;;;;;;1.40;0.97;;;;;;;;;;5072345;28;20293;-54
2022/04/16 13:09:36;;;;;;;2.10;1.07;;;;;;;;;;5062844;28;20626;-55
2022/04/16 13:12:04;;;;;;;2.00;0.90;;;;;;;;;;5067010;28;20748;-54
2022/04/16 13:14:30;;;;;;;1.63;1.43;;;;;;;;;;5070584;28;20278;-54
2022/04/16 13:16:56;;;;;;;1.47;1.03;;;;;;;;;;5072004;28;20203;-54
2022/04/16 13:19:22;;;;;;;0.73;0.73;;;;;;;;;;5072199;28;20275;-55
2022/04/16 13:21:48;;;;;;;1.33;1.20;;;;;;;;;;5072012;28;20206;-53
2022/04/16 13:24:16;;;;;;;1.83;1.00;;;;;;;;;;5071864;28;20243;-53
2022/04/16 13:26:43;;;;;;;1.70;1.60;;;;;;;;;;5070004;28;20200;-53
2022/04/16 13:29:11;;;;;;;1.03;0.93;;;;;;;;;;5069188;28;20713;-53
2022/04/16 13:31:37;;;;;;;1.13;1.03;;;;;;;;;;5071986;28;20826;-54
2022/04/16 13:34:03;;;;;;;2.90;2.70;;;;;;;;;;5071713;28;20225;-54
2022/04/16 13:36:29;;;;;;;0.80;0.70;;;;;;;;;;5071635;28;20657;-52
2022/04/16 13:38:55;;;;;;;0.87;0.80;;;;;;;;;;5071596;28;20195;-54
2022/04/16 13:41:39;;;;;;;0.93;0.60;;;;;;;;;;5071672;28;20596;-52
2022/04/16 13:44:06;;;;;;;0.90;0.90;;;;;;;;;;5071505;28;20224;-51
2022/04/16 13:46:34;;;;;;;3.40;1.20;;;;;;;;;;5071242;28;20203;-53
2022/04/16 13:49:03;;;;;;;1.70;1.30;;;;;;;;;;5071438;28;20314;-53
2022/04/16 13:51:29;;;;;;;0.80;0.80;;;;;;;;;;5071640;28;20195;-53
2022/04/16 13:53:55;;;;;;;1.17;0.80;;;;;;;;;;5072102;28;20218;-53
2022/04/16 13:56:21;;;;;;;1.70;0.90;;;;;;;;;;5075349;28;20286;-53
2022/04/16 13:58:47;;;;;;;0.67;0.60;;;;;;;;;;5075166;28;20773;-53
2022/04/16 14:01:17;;;;;;;0.97;0.87;;;;;;;;;;5075497;28;20202;-53
2022/04/16 14:03:45;;;;;;;0.97;0.80;;;;;;;;;;5075407;28;20202;-53
2022/04/16 14:06:11;;;;;;;0.97;0.90;;;;;;;;;;5074950;28;20207;-53
2022/04/16 14:08:37;;;;;;;3.33;2.80;;;;;;;;;;5075555;28;20738;-53
2022/04/16 14:11:04;;;;;;;4.40;3.53;;;;;;;;;;5075641;28;20719;-53
2022/04/16 14:13:32;;;;;;;3.00;1.33;;;;;;;;;;5075734;28;20198;-53
2022/04/16 14:15:58;;;;;;;0.90;0.90;;;;;;;;;;5074676;28;20732;-53
2022/04/16 14:18:25;;;;;;;1.37;0.97;;;;;;;;;;5074072;28;20628;-51
2022/04/16 14:20:52;;;;;;;1.30;0.90;;;;;;;;;;5075474;28;20205;-52
2022/04/16 14:23:18;;;;;;;1.27;0.90;;;;;;;;;;5075483;28;20202;-55
2022/04/16 14:25:44;;;;;;;1.37;0.97;;;;;;;;;;5075198;28;20247;-53
2022/04/16 14:28:10;;;;;;;0.77;0.73;;;;;;;;;;5075128;28;20671;-53
2022/04/16 14:30:37;;;;;;;0.70;0.70;;;;;;;;;;5075366;28;20201;-53
2022/04/16 14:33:03;;;;;;;4.10;0.77;;;;;;;;;;5075019;28;20291;-54
2022/04/16 14:35:29;;;;;;;14.77;12.33;;;;;;;;;;5075440;28;20241;-53
2022/04/16 14:37:56;;;;;;;1.17;1.07;;;;;;;;;;5075007;28;20240;-53
2022/04/16 14:40:23;;;;;;;0.70;0.70;;;;;;;;;;5075225;28;20202;-54
2022/04/16 14:42:49;;;;;;;0.97;0.90;;;;;;;;;;5075225;28;20206;-57
2022/04/16 14:45:15;;;;;;;2.57;1.10;;;;;;;;;;5072409;28;20243;-53
2022/04/16 14:47:45;;;;;;;1.97;0.63;;;;;;;;;;5075032;28;20623;-52
2022/04/16 14:50:11;;;;;;;1.27;0.70;;;;;;;;;;5074876;28;20644;-54
2022/04/16 14:52:37;;;;;;;1.50;0.73;;;;;;;;;;5075024;28;20299;-52
2022/04/16 14:55:07;;;;;;;0.87;0.80;;;;;;;;;;5074267;28;20318;-54
2022/04/16 14:57:33;;;;;;;1.10;0.90;;;;;;;;;;5074952;28;20216;-53
2022/04/16 14:59:59;;;;;;;0.90;0.90;;;;;;;;;;5074726;28;20227;-53
2022/04/16 15:02:25;;;;;;;1.43;0.67;;;;;;;;;;5074720;28;20197;-52
2022/04/16 15:04:52;;;;;;;1.10;0.97;;;;;;;;;;5074176;28;20568;-53